Hovedside
METAR-TAF:

METAR-TAF

Lufthavner :

Victoria, Mahé, Seychellene

breddegrad: 04-40S, lengdegrad: 055-31E, høyde over havet: 3 m

Gjeldene værobservasjon

Denne rapporten ble laget for 42 minutter siden, klokken 08:00 UTC
Vind 6 kt fra Sør-sørøst, skiftende mellom Øst-sørøst og Sørvest
Temperatur 31°C
Luftfuktighet 71%
Trykk 1009 hPa
Sikt 10 km eller mer
Spredte skyer i en høyde av 2800 ft

METAR: FSIA 130800Z 16006KT 110V220 9999 SCT028 31/25 Q1009 NOSIG

Tid: 12:42 (08:42 UTC)

Varsel

Denne rapporten ble laget for 3 timer og 41 minutter siden, klokken 05:01 UTC
Varsel gyldig fra 13. klokken 06 UTC til 14. klokken 06 UTC
Vind 10 kt fra Sørøst
Sikt 10 km eller mer
Spredte skyer i en høyde av 2200 ft

TAF: FSIA 130501Z 1306/1406 13010KT 9999 SCT022

Værobservasjoner og værvarsel for over 4000 flyplasser (METAR- og TAF-rapporter).

Tilgjengelige stasjoner er representert av de røde og gule prikkene på kartet.

Hold musepekeren over prikken for å se navnet på stasjonen.

Klikk så for å se værobservasjoner og -varsler.

For å forandre kartet kan du klikke på den grønne knappen med svart kryss for å zoome inn, på den grønne knappen med strek for å zoome ut, eller på de grønne pilene for å se tilstøtende kart.


METAR-TAF: